createdAt,value
2019-02-15T00:00:43.297Z,10.20
2019-02-15T00:01:51.832Z,9.97
2019-02-15T00:03:00.252Z,9.53
2019-02-15T00:04:08.683Z,9.80
2019-02-15T00:05:17.009Z,10.93
2019-02-15T00:06:26.209Z,12.67
2019-02-15T00:07:35.121Z,10.30
2019-02-15T00:08:43.320Z,10.43
2019-02-15T00:09:51.528Z,10.87
2019-02-15T00:11:00.099Z,10.53
2019-02-15T00:12:08.535Z,10.60
2019-02-15T00:13:17.547Z,9.07
2019-02-15T00:14:26.401Z,8.33
2019-02-15T00:15:35.219Z,12.30
2019-02-15T00:16:43.789Z,11.07
2019-02-15T00:17:52.124Z,10.33
2019-02-15T00:19:06.170Z,11.27
2019-02-15T00:20:16.273Z,9.70
2019-02-15T00:21:25.496Z,8.77
2019-02-15T00:22:34.123Z,9.43
2019-02-15T00:23:42.714Z,10.30
2019-02-15T00:24:51.442Z,9.63
2019-02-15T00:26:00.253Z,11.73
2019-02-15T00:27:08.503Z,10.87
2019-02-15T00:28:16.836Z,10.30
2019-02-15T00:29:25.291Z,10.23
2019-02-15T00:30:33.584Z,10.97
2019-02-15T00:31:42.047Z,10.80
2019-02-15T00:32:50.658Z,10.77
2019-02-15T00:33:58.664Z,9.47
2019-02-15T00:35:07.261Z,10.87
2019-02-15T00:36:15.994Z,9.57
2019-02-15T00:37:24.277Z,9.87
2019-02-15T00:38:33.180Z,10.80
2019-02-15T00:39:41.342Z,9.33
2019-02-15T00:40:49.487Z,11.40
2019-02-15T00:41:59.497Z,9.47
2019-02-15T00:43:08.243Z,9.80
2019-02-15T00:44:17.527Z,9.53
2019-02-15T00:45:29.692Z,8.43
2019-02-15T00:46:51.907Z,8.73
2019-02-15T00:48:07.358Z,9.17
2019-02-15T00:49:17.198Z,8.50
2019-02-15T00:50:27.456Z,10.17
2019-02-15T00:51:39.884Z,10.70
2019-02-15T00:52:49.617Z,11.50
2019-02-15T00:54:15.606Z,10.03
2019-02-15T00:55:43.556Z,8.80
2019-02-15T00:56:56.303Z,10.33
2019-02-15T00:58:09.005Z,11.87
2019-02-15T00:59:17.589Z,9.40
2019-02-15T01:00:45.455Z,8.97
2019-02-15T01:02:11.376Z,9.97
2019-02-15T01:03:39.645Z,6.30
2019-02-15T01:05:04.686Z,8.77
2019-02-15T01:06:18.864Z,9.10
2019-02-15T01:07:44.916Z,10.07
2019-02-15T01:08:55.087Z,8.87
2019-02-15T01:10:23.634Z,8.57
2019-02-15T01:11:34.288Z,9.40
2019-02-15T01:12:44.607Z,9.70
2019-02-15T01:13:53.220Z,9.03
2019-02-15T01:15:01.334Z,8.93
2019-02-15T01:16:09.469Z,9.80
2019-02-15T01:17:17.711Z,8.57
2019-02-15T01:18:26.113Z,9.23
2019-02-15T01:19:34.830Z,10.07
2019-02-15T01:20:42.930Z,9.20
2019-02-15T01:21:51.119Z,7.90
2019-02-15T01:22:59.134Z,10.90
2019-02-15T01:24:07.418Z,6.00
2019-02-15T01:25:15.978Z,10.37
2019-02-15T01:26:34.566Z,7.93
2019-02-15T01:27:44.916Z,8.17
2019-02-15T01:28:54.501Z,7.43
2019-02-15T01:30:07.367Z,9.00
2019-02-15T01:31:26.099Z,8.43
2019-02-15T01:32:50.887Z,8.50
2019-02-15T01:34:10.619Z,8.20
2019-02-15T01:35:20.471Z,7.00
2019-02-15T01:36:33.027Z,5.77
2019-02-15T01:37:43.035Z,5.87
2019-02-15T01:38:53.502Z,8.43
2019-02-15T01:40:03.330Z,5.80
2019-02-15T01:41:22.180Z,7.93
2019-02-15T01:42:32.122Z,9.17
2019-02-15T01:43:45.955Z,7.60
2019-02-15T01:44:55.740Z,7.37
2019-02-15T01:46:14.669Z,7.07
2019-02-15T01:47:23.181Z,6.37
2019-02-15T01:48:31.609Z,5.77
2019-02-15T01:49:39.657Z,9.53
2019-02-15T01:50:47.747Z,8.83
2019-02-15T01:51:55.845Z,8.57
2019-02-15T01:53:03.961Z,7.63
2019-02-15T01:54:12.035Z,8.20
2019-02-15T01:55:20.290Z,7.43
2019-02-15T01:56:28.486Z,8.23
2019-02-15T01:57:36.838Z,9.00
2019-02-15T01:58:45.144Z,7.97
2019-02-15T01:59:53.248Z,6.63
2019-02-15T02:01:02.015Z,7.40
2019-02-15T02:02:10.248Z,7.93
2019-02-15T02:03:18.917Z,6.00
2019-02-15T02:04:27.248Z,6.60
2019-02-15T02:05:35.559Z,7.47
2019-02-15T02:06:43.715Z,5.53
2019-02-15T02:07:52.622Z,8.17
2019-02-15T02:09:00.901Z,5.70
2019-02-15T02:10:11.230Z,8.00
2019-02-15T02:11:19.557Z,7.03
2019-02-15T02:12:27.643Z,6.43
2019-02-15T02:13:36.168Z,5.20
2019-02-15T02:14:44.222Z,6.67
2019-02-15T02:15:52.418Z,6.97
2019-02-15T02:17:00.638Z,8.23
2019-02-15T02:18:08.798Z,7.13
2019-02-15T02:19:17.021Z,7.57
2019-02-15T02:20:25.474Z,8.30
2019-02-15T02:21:33.368Z,7.53
2019-02-15T02:22:43.054Z,6.80
2019-02-15T02:23:51.149Z,7.93
2019-02-15T02:24:59.464Z,8.90
2019-02-15T02:26:07.649Z,7.67
2019-02-15T02:27:16.065Z,7.10
2019-02-15T02:28:24.355Z,6.87
2019-02-15T02:29:32.552Z,6.93
2019-02-15T02:30:40.952Z,7.87
2019-02-15T02:31:49.118Z,5.43
2019-02-15T02:32:57.456Z,8.10
2019-02-15T02:34:05.820Z,7.67
2019-02-15T02:35:14.112Z,7.63
2019-02-15T02:36:22.468Z,7.90
2019-02-15T02:37:30.866Z,7.30
2019-02-15T02:38:39.475Z,7.97
2019-02-15T02:39:47.906Z,8.37
2019-02-15T02:40:56.848Z,6.53
2019-02-15T02:42:05.523Z,7.63
2019-02-15T02:43:13.736Z,6.33
2019-02-15T02:44:22.368Z,8.07
2019-02-15T02:45:30.825Z,6.67
2019-02-15T02:46:38.921Z,7.03
2019-02-15T02:47:46.760Z,6.23
2019-02-15T02:48:55.225Z,6.37
2019-02-15T02:50:03.562Z,6.10
2019-02-15T02:51:11.931Z,7.33
2019-02-15T02:52:19.888Z,6.03
2019-02-15T02:53:28.191Z,6.47
2019-02-15T02:54:36.318Z,4.93
2019-02-15T02:55:44.746Z,6.93
2019-02-15T02:56:53.025Z,7.23
2019-02-15T02:58:01.295Z,7.33
2019-02-15T02:59:09.444Z,5.00
2019-02-15T03:00:18.075Z,8.00
2019-02-15T03:01:26.234Z,6.33
2019-02-15T03:02:34.171Z,6.27
2019-02-15T03:03:42.321Z,8.07
2019-02-15T03:04:50.219Z,8.23
2019-02-15T03:05:58.733Z,6.10
2019-02-15T03:07:07.264Z,9.27
2019-02-15T03:08:16.196Z,8.03
2019-02-15T03:09:26.183Z,5.60
2019-02-15T03:10:34.999Z,7.60
2019-02-15T03:11:43.740Z,6.53
2019-02-15T03:12:52.774Z,7.73
2019-02-15T03:14:11.180Z,6.67
2019-02-15T03:15:11.427Z,4.90
2019-02-15T03:16:19.847Z,5.43
2019-02-15T03:17:27.874Z,5.03
2019-02-15T03:18:35.767Z,4.63
2019-02-15T03:19:44.180Z,6.03
2019-02-15T03:20:52.236Z,7.00
2019-02-15T03:22:00.275Z,9.87
2019-02-15T03:23:09.063Z,7.53
2019-02-15T03:24:17.395Z,5.83
2019-02-15T03:25:25.690Z,8.40
2019-02-15T03:26:34.402Z,8.47
2019-02-15T03:27:42.769Z,7.83
2019-02-15T03:28:50.865Z,6.93
2019-02-15T03:29:59.201Z,7.50
2019-02-15T03:31:07.445Z,6.43
2019-02-15T03:32:15.809Z,6.97
2019-02-15T03:33:23.905Z,7.30
2019-02-15T03:34:32.629Z,8.03
2019-02-15T03:35:44.091Z,8.73
2019-02-15T03:36:51.984Z,7.53
2019-02-15T03:38:10.952Z,5.80
2019-02-15T03:39:44.464Z,7.57
2019-02-15T03:40:53.471Z,6.60
2019-02-15T03:42:01.748Z,8.10
2019-02-15T03:43:09.924Z,7.13
2019-02-15T03:44:22.203Z,5.63
2019-02-15T03:45:28.163Z,7.83
2019-02-15T03:46:36.406Z,8.40
2019-02-15T03:47:44.911Z,5.87
2019-02-15T03:48:53.268Z,6.37
2019-02-15T03:50:01.591Z,7.27
2019-02-15T03:51:10.145Z,6.27
2019-02-15T03:52:18.739Z,7.07
2019-02-15T03:53:27.174Z,8.10
2019-02-15T03:54:36.119Z,6.17
2019-02-15T03:55:44.251Z,8.93
2019-02-15T03:56:52.814Z,7.60
2019-02-15T03:58:01.474Z,7.07
2019-02-15T03:59:09.926Z,8.70
2019-02-15T04:00:18.193Z,6.87
2019-02-15T04:01:26.791Z,8.47
2019-02-15T04:02:34.815Z,8.40
2019-02-15T04:03:43.488Z,7.67
2019-02-15T04:04:52.003Z,9.43
2019-02-15T04:06:00.013Z,5.93
2019-02-15T04:07:08.405Z,5.07
2019-02-15T04:08:16.399Z,8.03
2019-02-15T04:09:24.769Z,7.73
2019-02-15T04:10:33.504Z,7.23
2019-02-15T04:11:41.811Z,6.07
2019-02-15T04:12:50.264Z,7.93
2019-02-15T04:13:58.364Z,8.33
2019-02-15T04:15:08.564Z,6.23
2019-02-15T04:16:16.966Z,7.67
2019-02-15T04:17:25.155Z,8.97
2019-02-15T04:18:33.812Z,6.80
2019-02-15T04:19:42.574Z,7.87
2019-02-15T04:20:50.669Z,7.87
2019-02-15T04:21:59.022Z,8.00
2019-02-15T04:23:07.649Z,8.90
2019-02-15T04:24:15.996Z,7.40
2019-02-15T04:25:24.389Z,6.27
2019-02-15T04:26:33.020Z,7.30
2019-02-15T04:27:41.844Z,9.40
2019-02-15T04:28:50.232Z,8.23
2019-02-15T04:29:58.335Z,6.47
2019-02-15T04:31:06.456Z,8.97
2019-02-15T04:32:15.229Z,6.97
2019-02-15T04:33:23.632Z,6.80
2019-02-15T04:34:32.347Z,8.17
2019-02-15T04:35:41.054Z,7.27
2019-02-15T04:36:49.601Z,6.33
2019-02-15T04:37:58.482Z,7.53
2019-02-15T04:39:07.113Z,6.33
2019-02-15T04:40:15.965Z,7.80
2019-02-15T04:41:24.541Z,7.90
2019-02-15T04:42:32.813Z,9.00
2019-02-15T04:43:41.001Z,7.43
2019-02-15T04:44:49.097Z,8.57
2019-02-15T04:45:57.156Z,7.73
2019-02-15T04:47:05.598Z,7.23
2019-02-15T04:48:13.932Z,6.97
2019-02-15T04:49:22.512Z,6.77
2019-02-15T04:50:30.974Z,8.47
2019-02-15T04:51:39.213Z,6.33
2019-02-15T04:52:47.526Z,7.00
2019-02-15T04:53:55.714Z,6.97
2019-02-15T04:55:04.229Z,7.10
2019-02-15T04:56:12.683Z,7.90
2019-02-15T04:57:20.887Z,7.20
2019-02-15T04:58:29.022Z,7.13
2019-02-15T04:59:37.039Z,7.70
2019-02-15T05:00:45.058Z,5.40
2019-02-15T05:01:53.155Z,7.00
2019-02-15T05:03:01.627Z,7.23
2019-02-15T05:04:09.730Z,6.70
2019-02-15T05:05:18.027Z,5.23
2019-02-15T05:06:26.098Z,8.17
2019-02-15T05:07:34.160Z,7.27
2019-02-15T05:08:42.497Z,5.93
2019-02-15T05:09:50.564Z,7.00
2019-02-15T05:10:58.858Z,5.60
2019-02-15T05:12:06.841Z,9.27
2019-02-15T05:13:15.528Z,5.90
2019-02-15T05:14:24.086Z,6.67
2019-02-15T05:15:32.372Z,6.23
2019-02-15T05:16:41.163Z,6.80
2019-02-15T05:17:49.485Z,6.67
2019-02-15T05:18:57.641Z,6.43
2019-02-15T05:20:08.093Z,7.20
2019-02-15T05:21:16.509Z,6.70
2019-02-15T05:22:24.737Z,7.73
2019-02-15T05:23:32.997Z,7.10
2019-02-15T05:24:41.706Z,6.77
2019-02-15T05:25:50.318Z,7.13
2019-02-15T05:26:58.486Z,6.80
2019-02-15T05:28:08.942Z,5.53
2019-02-15T05:29:17.040Z,7.13
2019-02-15T05:30:26.048Z,6.37
2019-02-15T05:31:35.214Z,3.93
2019-02-15T05:32:45.167Z,6.07
2019-02-15T05:33:53.905Z,8.60
2019-02-15T05:35:02.599Z,6.77
2019-02-15T05:36:11.161Z,7.37
2019-02-15T05:37:19.494Z,6.57
2019-02-15T05:38:27.831Z,4.60
2019-02-15T05:39:36.588Z,6.00
2019-02-15T05:40:44.838Z,6.20
2019-02-15T05:41:53.094Z,10.50
2019-02-15T05:43:01.603Z,11.23
2019-02-15T05:44:09.946Z,9.70
2019-02-15T05:45:18.575Z,9.27
2019-02-15T05:46:27.150Z,9.77
2019-02-15T05:47:37.354Z,7.23
2019-02-15T05:48:45.475Z,7.90
2019-02-15T05:49:54.027Z,8.33
2019-02-15T05:51:02.270Z,9.03
2019-02-15T05:52:10.937Z,10.23
2019-02-15T05:53:19.145Z,9.67
2019-02-15T05:54:27.621Z,8.90
2019-02-15T05:55:36.403Z,7.50
2019-02-15T05:56:45.231Z,6.57
2019-02-15T05:57:53.733Z,5.00
2019-02-15T05:59:03.361Z,6.80
2019-02-15T06:00:12.483Z,5.90
2019-02-15T06:01:22.011Z,6.57
2019-02-15T06:02:30.379Z,6.37
2019-02-15T06:03:38.839Z,5.80
2019-02-15T06:04:47.418Z,5.03
2019-02-15T06:05:55.694Z,5.10
2019-02-15T06:07:03.923Z,5.60
2019-02-15T06:08:12.355Z,6.33
2019-02-15T06:09:20.843Z,4.17
2019-02-15T06:10:29.354Z,6.40
2019-02-15T06:11:37.646Z,5.37
2019-02-15T06:12:46.353Z,5.70
2019-02-15T06:13:54.768Z,4.67
2019-02-15T06:15:14.450Z,4.63
2019-02-15T06:16:13.748Z,5.63
2019-02-15T06:17:21.970Z,4.63
2019-02-15T06:18:30.522Z,4.60
2019-02-15T06:19:39.194Z,6.97
2019-02-15T06:20:48.364Z,4.70
2019-02-15T06:21:56.493Z,4.13
2019-02-15T06:23:06.547Z,5.00
2019-02-15T06:24:14.843Z,5.53
2019-02-15T06:25:23.302Z,5.33
2019-02-15T06:26:32.322Z,5.93
2019-02-15T06:27:40.992Z,5.43
2019-02-15T06:28:49.630Z,4.77
2019-02-15T06:29:58.408Z,6.13
2019-02-15T06:31:06.864Z,5.43
2019-02-15T06:32:15.522Z,4.90
2019-02-15T06:33:24.334Z,5.50
2019-02-15T06:34:32.690Z,4.57
2019-02-15T06:35:41.796Z,4.60
2019-02-15T06:36:50.312Z,5.00
2019-02-15T06:37:59.738Z,6.30
2019-02-15T06:39:08.983Z,5.13
2019-02-15T06:40:17.774Z,4.97
2019-02-15T06:41:28.483Z,5.17
2019-02-15T06:42:36.756Z,5.60
2019-02-15T06:43:45.956Z,4.87
2019-02-15T06:44:54.696Z,4.43
2019-02-15T06:46:02.928Z,5.10
2019-02-15T06:47:11.399Z,5.67
2019-02-15T06:48:19.746Z,5.70
2019-02-15T06:49:28.171Z,5.13
2019-02-15T06:50:36.662Z,5.77
2019-02-15T06:51:45.715Z,5.63
2019-02-15T06:52:54.445Z,5.00
2019-02-15T06:54:02.706Z,6.07
2019-02-15T06:55:11.024Z,5.73
2019-02-15T06:56:19.667Z,5.50
2019-02-15T06:57:28.256Z,5.03
2019-02-15T06:58:45.503Z,5.63
2019-02-15T06:59:51.372Z,4.87
2019-02-15T07:01:19.685Z,4.63
2019-02-15T07:02:32.461Z,3.90
2019-02-15T07:04:01.346Z,4.57
2019-02-15T07:05:11.696Z,4.30
2019-02-15T07:06:21.069Z,3.90
2019-02-15T07:07:29.503Z,5.83
2019-02-15T07:08:38.090Z,5.03
2019-02-15T07:09:46.972Z,4.43
2019-02-15T07:10:56.953Z,6.90
2019-02-15T07:12:05.870Z,5.47
2019-02-15T07:13:15.928Z,5.47
2019-02-15T07:14:26.330Z,7.00
2019-02-15T07:15:35.959Z,5.73
2019-02-15T07:16:44.730Z,5.63
2019-02-15T07:17:53.363Z,5.50
2019-02-15T07:19:01.801Z,6.10
2019-02-15T07:20:12.028Z,4.73
2019-02-15T07:21:21.278Z,4.90
2019-02-15T07:22:29.927Z,4.77
2019-02-15T07:23:40.062Z,5.83
2019-02-15T07:24:48.873Z,4.17
2019-02-15T07:25:57.176Z,4.77
2019-02-15T07:27:05.550Z,5.50
2019-02-15T07:28:14.170Z,6.37
2019-02-15T07:29:22.693Z,4.20
2019-02-15T07:30:31.471Z,5.10
2019-02-15T07:31:40.053Z,5.60
2019-02-15T07:32:48.966Z,4.87
2019-02-15T07:33:57.617Z,5.93
2019-02-15T07:35:07.632Z,6.73
2019-02-15T07:36:16.125Z,6.17
2019-02-15T07:37:24.663Z,5.40
2019-02-15T07:38:32.985Z,5.13
2019-02-15T07:39:41.798Z,6.00
2019-02-15T07:40:50.371Z,5.07
2019-02-15T07:41:58.872Z,5.10
2019-02-15T07:43:07.412Z,4.43
2019-02-15T07:44:16.268Z,5.53
2019-02-15T07:45:24.677Z,5.63
2019-02-15T07:46:33.515Z,5.80
2019-02-15T07:47:42.063Z,4.87
2019-02-15T07:48:50.771Z,5.07
2019-02-15T07:49:59.221Z,5.53
2019-02-15T07:51:09.868Z,4.77
2019-02-15T07:52:18.795Z,5.90
2019-02-15T07:53:27.224Z,5.80
2019-02-15T07:54:35.674Z,4.10
2019-02-15T07:55:43.903Z,4.83
2019-02-15T07:56:52.594Z,6.10
2019-02-15T07:58:01.004Z,4.20
2019-02-15T07:59:09.349Z,4.13
2019-02-15T08:00:18.038Z,2.70
2019-02-15T08:01:26.746Z,2.83
2019-02-15T08:02:35.186Z,2.90
2019-02-15T08:03:43.450Z,3.53
2019-02-15T08:04:52.463Z,2.83
2019-02-15T08:06:01.219Z,3.67
2019-02-15T08:07:09.685Z,4.37
2019-02-15T08:08:18.803Z,3.17
2019-02-15T08:09:27.118Z,4.40
2019-02-15T08:10:35.539Z,3.23
2019-02-15T08:11:44.398Z,4.03
2019-02-15T08:12:53.450Z,3.07
2019-02-15T08:14:02.700Z,3.80
2019-02-15T08:15:12.383Z,3.13
2019-02-15T08:16:20.562Z,3.60
2019-02-15T08:17:29.542Z,3.80
2019-02-15T08:18:38.133Z,3.30
2019-02-15T08:19:46.393Z,5.10
2019-02-15T08:20:55.168Z,3.70
2019-02-15T08:22:09.302Z,4.40
2019-02-15T08:23:20.679Z,4.93
2019-02-15T08:24:31.454Z,4.57
2019-02-15T08:25:41.471Z,2.97
2019-02-15T08:26:50.119Z,3.73
2019-02-15T08:27:59.412Z,4.20
2019-02-15T08:29:07.788Z,3.47
2019-02-15T08:30:17.316Z,3.67
2019-02-15T08:31:25.648Z,4.67
2019-02-15T08:32:34.639Z,3.93
2019-02-15T08:33:42.776Z,4.07
2019-02-15T08:34:51.313Z,4.13
2019-02-15T08:35:59.856Z,4.50
2019-02-15T08:37:08.467Z,4.20
2019-02-15T08:38:16.597Z,5.40
2019-02-15T08:39:24.896Z,6.07
2019-02-15T08:40:33.199Z,5.53
2019-02-15T08:41:41.473Z,5.77
2019-02-15T08:42:49.939Z,5.33
2019-02-15T08:43:58.278Z,4.33
2019-02-15T08:45:13.020Z,3.90
2019-02-15T08:46:21.658Z,4.33
2019-02-15T08:47:29.866Z,3.30
2019-02-15T08:48:45.857Z,3.87
2019-02-15T08:49:48.088Z,3.93
2019-02-15T08:50:56.580Z,5.13
2019-02-15T08:52:04.811Z,3.80
2019-02-15T08:53:13.248Z,3.97
2019-02-15T08:54:21.531Z,4.93
2019-02-15T08:55:30.043Z,3.70
2019-02-15T08:56:38.648Z,3.10
2019-02-15T08:57:47.066Z,3.47
2019-02-15T08:58:55.244Z,4.23
2019-02-15T09:00:04.571Z,3.90
2019-02-15T09:01:14.226Z,3.70
2019-02-15T09:02:23.202Z,4.20
2019-02-15T09:03:31.868Z,3.73
2019-02-15T09:04:40.295Z,4.57
2019-02-15T09:05:48.366Z,4.53
2019-02-15T09:06:56.814Z,4.20
2019-02-15T09:08:05.574Z,4.80
2019-02-15T09:09:14.038Z,4.10
2019-02-15T09:10:22.318Z,4.13
2019-02-15T09:11:30.477Z,3.67
2019-02-15T09:12:38.873Z,3.33
2019-02-15T09:13:47.193Z,3.73
2019-02-15T09:14:55.397Z,4.10
2019-02-15T09:16:09.996Z,3.57
2019-02-15T09:17:13.259Z,3.33
2019-02-15T09:18:21.648Z,4.07
2019-02-15T09:19:29.994Z,4.43
2019-02-15T09:20:38.334Z,4.80
2019-02-15T09:21:46.624Z,3.07
2019-02-15T09:22:55.308Z,4.27
2019-02-15T09:24:03.631Z,3.90
2019-02-15T09:25:12.758Z,4.37
2019-02-15T09:26:21.059Z,3.70
2019-02-15T09:27:30.769Z,3.53
2019-02-15T09:28:40.543Z,3.00
2019-02-15T09:29:49.269Z,3.33
2019-02-15T09:30:57.568Z,3.73
2019-02-15T09:32:05.902Z,5.03
2019-02-15T09:33:14.450Z,4.20
2019-02-15T09:34:22.575Z,4.47
2019-02-15T09:35:30.753Z,3.20
2019-02-15T09:36:39.329Z,3.23
2019-02-15T09:37:47.525Z,3.30
2019-02-15T09:38:56.056Z,3.30
2019-02-15T09:40:05.051Z,2.57
2019-02-15T09:41:13.600Z,3.70
2019-02-15T09:42:21.785Z,3.67
2019-02-15T09:43:29.781Z,3.57
2019-02-15T09:44:38.246Z,5.17
2019-02-15T09:45:46.685Z,2.87
2019-02-15T09:46:55.349Z,3.80
2019-02-15T09:48:03.388Z,2.90
2019-02-15T09:49:11.495Z,2.87
2019-02-15T09:50:19.857Z,2.70
2019-02-15T09:51:28.046Z,3.00
2019-02-15T09:52:36.186Z,2.87
2019-02-15T09:53:44.692Z,4.00
2019-02-15T09:54:52.776Z,3.00
2019-02-15T09:56:00.855Z,3.63
2019-02-15T09:57:09.302Z,3.30
2019-02-15T09:58:18.158Z,4.33
2019-02-15T09:59:26.259Z,2.90
2019-02-15T10:00:34.695Z,3.83
2019-02-15T10:01:43.113Z,3.77
2019-02-15T10:02:55.673Z,3.10
2019-02-15T10:04:03.617Z,3.23
2019-02-15T10:05:11.973Z,4.47
2019-02-15T10:06:20.426Z,3.13
2019-02-15T10:07:28.604Z,3.47
2019-02-15T10:08:36.795Z,3.23
2019-02-15T10:09:45.107Z,4.80
2019-02-15T10:10:53.202Z,4.60
2019-02-15T10:12:01.598Z,3.43
2019-02-15T10:13:09.602Z,2.50
2019-02-15T10:14:18.134Z,3.57
2019-02-15T10:15:26.307Z,4.00
2019-02-15T10:16:34.739Z,3.17
2019-02-15T10:17:43.036Z,3.63
2019-02-15T10:18:51.519Z,3.10
2019-02-15T10:19:59.731Z,4.67
2019-02-15T10:21:08.055Z,2.63
2019-02-15T10:22:16.396Z,6.77
2019-02-15T10:23:24.820Z,4.27
2019-02-15T10:24:32.997Z,4.93
2019-02-15T10:25:41.306Z,5.33
2019-02-15T10:26:49.664Z,6.47
2019-02-15T10:27:58.000Z,8.00
2019-02-15T10:29:06.154Z,6.43
2019-02-15T10:30:14.874Z,4.03
2019-02-15T10:31:23.516Z,6.30
2019-02-15T10:32:32.114Z,5.20
2019-02-15T10:33:40.671Z,4.50
2019-02-15T10:34:48.690Z,5.37
2019-02-15T10:35:56.765Z,5.43
2019-02-15T10:37:04.969Z,5.37
2019-02-15T10:38:13.944Z,7.97
2019-02-15T10:39:22.135Z,4.63
2019-02-15T10:40:30.143Z,6.03
2019-02-15T10:41:38.473Z,6.83
2019-02-15T10:42:46.830Z,7.67
2019-02-15T10:43:54.952Z,8.23
2019-02-15T10:45:03.580Z,7.83
2019-02-15T10:46:11.578Z,7.80
2019-02-15T10:47:24.995Z,7.97
2019-02-15T10:48:30.406Z,7.80
2019-02-15T10:49:38.592Z,7.53
2019-02-15T10:50:46.877Z,7.53
2019-02-15T10:51:55.541Z,9.70
2019-02-15T10:53:04.105Z,8.57
2019-02-15T10:54:12.118Z,8.27
2019-02-15T10:55:20.297Z,7.70
2019-02-15T10:56:29.283Z,8.60
2019-02-15T10:57:37.864Z,8.73
2019-02-15T10:58:45.883Z,7.33
2019-02-15T10:59:54.178Z,7.17
2019-02-15T11:01:02.198Z,9.20
2019-02-15T11:02:11.387Z,5.87
2019-02-15T11:03:19.968Z,6.50
2019-02-15T11:04:28.312Z,7.87
2019-02-15T11:05:36.494Z,7.50
2019-02-15T11:06:45.879Z,9.27
2019-02-15T11:07:54.446Z,7.83
2019-02-15T11:09:03.286Z,7.43
2019-02-15T11:10:12.149Z,8.57
2019-02-15T11:11:21.035Z,7.33
2019-02-15T11:12:29.213Z,7.60
2019-02-15T11:13:37.472Z,6.63
2019-02-15T11:14:46.338Z,6.73
2019-02-15T11:15:55.077Z,7.13
2019-02-15T11:17:03.404Z,6.70
2019-02-15T11:18:11.807Z,7.07
2019-02-15T11:19:20.084Z,6.33
2019-02-15T11:20:28.529Z,6.37
2019-02-15T11:21:36.944Z,5.60
2019-02-15T11:22:44.945Z,6.57
2019-02-15T11:23:53.185Z,5.80
2019-02-15T11:25:01.635Z,7.30
2019-02-15T11:26:10.567Z,4.97
2019-02-15T11:27:18.771Z,6.97
2019-02-15T11:28:26.982Z,5.90
2019-02-15T11:29:35.171Z,5.57
2019-02-15T11:30:43.571Z,5.83
2019-02-15T11:31:51.994Z,6.30
2019-02-15T11:33:00.233Z,5.50
2019-02-15T11:34:08.398Z,5.67
2019-02-15T11:35:16.662Z,3.43
2019-02-15T11:36:24.963Z,4.33
2019-02-15T11:37:33.756Z,3.37
2019-02-15T11:38:42.292Z,5.20
2019-02-15T11:39:51.105Z,4.70
2019-02-15T11:40:59.629Z,4.65
2019-02-15T11:42:07.987Z,3.67
2019-02-15T11:43:16.309Z,3.87
2019-02-15T11:44:24.797Z,4.72
2019-02-15T11:45:33.162Z,4.55
2019-02-15T11:46:41.897Z,5.10
2019-02-15T11:47:50.328Z,4.60
2019-02-15T11:48:58.528Z,4.35
2019-02-15T11:50:10.391Z,3.27
2019-02-15T11:51:19.534Z,4.78
2019-02-15T11:52:27.953Z,3.02
2019-02-15T11:53:36.414Z,4.28
2019-02-15T11:54:45.097Z,4.22
2019-02-15T11:55:53.904Z,5.42
2019-02-15T11:57:02.833Z,4.33
2019-02-15T11:58:11.415Z,4.78
2019-02-15T11:59:19.922Z,5.22
2019-02-15T12:00:36.206Z,4.70
2019-02-15T12:01:44.861Z,4.78
2019-02-15T12:02:53.442Z,5.33
2019-02-15T12:04:02.424Z,5.83
2019-02-15T12:05:11.660Z,5.75
2019-02-15T12:06:20.028Z,5.10
2019-02-15T12:07:28.760Z,5.30
2019-02-15T12:08:37.778Z,4.80
2019-02-15T12:09:45.838Z,4.20
2019-02-15T12:10:54.511Z,4.97
2019-02-15T12:12:10.476Z,4.03
2019-02-15T12:13:15.545Z,5.17
2019-02-15T12:14:23.819Z,5.57
2019-02-15T12:15:32.439Z,4.57
2019-02-15T12:16:40.675Z,5.93
2019-02-15T12:17:49.617Z,6.40
2019-02-15T12:18:57.864Z,4.30
2019-02-15T12:20:12.534Z,3.07
2019-02-15T12:21:21.014Z,3.83
2019-02-15T12:22:29.144Z,4.07
2019-02-15T12:23:37.482Z,4.93
2019-02-15T12:24:45.494Z,4.57
2019-02-15T12:25:53.867Z,4.57
2019-02-15T12:27:02.078Z,4.20
2019-02-15T12:28:10.527Z,3.83
2019-02-15T12:29:19.080Z,4.67
2019-02-15T12:30:26.985Z,4.10
2019-02-15T12:31:35.243Z,4.37
2019-02-15T12:32:43.341Z,4.60
2019-02-15T12:33:52.089Z,3.53
2019-02-15T12:35:00.349Z,3.80
2019-02-15T12:36:08.514Z,4.10
2019-02-15T12:37:17.911Z,3.33
2019-02-15T12:38:26.729Z,3.47
2019-02-15T12:39:35.571Z,3.63
2019-02-15T12:40:44.020Z,4.50
2019-02-15T12:41:52.523Z,3.97
2019-02-15T12:43:01.132Z,4.30
2019-02-15T12:44:09.448Z,3.60
2019-02-15T12:45:19.184Z,3.80
2019-02-15T12:46:27.719Z,4.33
2019-02-15T12:47:35.864Z,5.67
2019-02-15T12:48:44.923Z,5.10
2019-02-15T12:49:55.713Z,5.77
2019-02-15T12:51:05.113Z,4.80
2019-02-15T12:52:13.841Z,5.30
2019-02-15T12:53:22.942Z,5.30
2019-02-15T12:54:31.210Z,4.13
2019-02-15T12:55:39.439Z,4.60
2019-02-15T12:56:48.021Z,4.83
2019-02-15T12:57:56.468Z,6.80
2019-02-15T12:59:05.432Z,4.93
2019-02-15T13:00:18.200Z,5.13
2019-02-15T13:01:26.612Z,4.80
2019-02-15T13:02:35.508Z,4.83
2019-02-15T13:03:44.066Z,4.87
2019-02-15T13:04:52.324Z,4.93
2019-02-15T13:06:00.990Z,5.20
2019-02-15T13:07:09.477Z,4.80
2019-02-15T13:08:17.747Z,5.53
2019-02-15T13:09:27.886Z,4.20
2019-02-15T13:10:38.325Z,5.53
2019-02-15T13:11:46.916Z,5.20
2019-02-15T13:12:55.391Z,6.00
2019-02-15T13:14:04.148Z,6.03
2019-02-15T13:15:14.333Z,5.00
2019-02-15T13:16:23.756Z,5.83
2019-02-15T13:17:32.101Z,6.93
2019-02-15T13:18:40.330Z,4.47
2019-02-15T13:19:48.589Z,3.97
2019-02-15T13:20:56.755Z,4.67
2019-02-15T13:22:05.387Z,5.13
2019-02-15T13:23:13.460Z,5.00
2019-02-15T13:24:21.689Z,5.43
2019-02-15T13:25:36.594Z,5.50
2019-02-15T13:26:40.050Z,5.63
2019-02-15T13:27:48.251Z,6.28
2019-02-15T13:28:56.427Z,6.07
2019-02-15T13:30:06.619Z,6.40
2019-02-15T13:31:15.747Z,5.92
2019-02-15T13:32:24.348Z,6.75
2019-02-15T13:33:32.543Z,5.33
2019-02-15T13:34:41.168Z,6.20
2019-02-15T13:35:49.581Z,5.67
2019-02-15T13:36:58.387Z,5.70
2019-02-15T13:38:06.531Z,6.33
2019-02-15T13:39:15.293Z,6.53
2019-02-15T13:40:23.992Z,6.25
2019-02-15T13:41:32.415Z,5.83
2019-02-15T13:42:40.853Z,6.30
2019-02-15T13:43:49.226Z,6.33
2019-02-15T13:44:57.583Z,5.10
2019-02-15T13:46:05.898Z,5.47
2019-02-15T13:47:13.962Z,5.10
2019-02-15T13:48:22.601Z,6.27
2019-02-15T13:49:30.931Z,7.33
2019-02-15T13:50:39.307Z,6.40
2019-02-15T13:51:48.190Z,5.77
2019-02-15T13:52:56.804Z,5.70
2019-02-15T13:54:05.262Z,5.20
2019-02-15T13:55:13.518Z,5.07
2019-02-15T13:56:21.866Z,6.58
2019-02-15T13:57:30.193Z,4.87
2019-02-15T13:58:38.777Z,6.47
2019-02-15T13:59:47.039Z,6.55
2019-02-15T14:00:55.591Z,6.27
2019-02-15T14:02:03.749Z,5.70
2019-02-15T14:03:12.201Z,6.67
2019-02-15T14:04:20.699Z,6.70
2019-02-15T14:05:29.823Z,5.73
2019-02-15T14:06:38.177Z,6.07
2019-02-15T14:07:46.634Z,5.90
2019-02-15T14:08:54.836Z,3.93
2019-02-15T14:10:03.230Z,5.80
2019-02-15T14:11:11.220Z,4.23
2019-02-15T14:12:19.890Z,4.33
2019-02-15T14:13:29.273Z,6.23
2019-02-15T14:14:37.458Z,6.43
2019-02-15T14:15:46.481Z,5.70
2019-02-15T14:16:54.881Z,5.67
2019-02-15T14:18:03.042Z,5.33
2019-02-15T14:19:11.489Z,5.77
2019-02-15T14:20:19.716Z,4.83
2019-02-15T14:21:27.928Z,7.67
2019-02-15T14:22:36.303Z,5.80
2019-02-15T14:23:44.553Z,5.93
2019-02-15T14:24:52.797Z,6.13
2019-02-15T14:26:01.201Z,5.20
2019-02-15T14:27:09.591Z,7.37
2019-02-15T14:28:17.804Z,7.03
2019-02-15T14:29:26.456Z,6.93
2019-02-15T14:30:34.855Z,6.40
2019-02-15T14:31:43.045Z,5.93
2019-02-15T14:32:51.406Z,5.80
2019-02-15T14:33:59.811Z,7.67
2019-02-15T14:35:13.803Z,7.17
2019-02-15T14:36:21.845Z,7.27
2019-02-15T14:37:30.055Z,6.07
2019-02-15T14:38:38.547Z,6.90
2019-02-15T14:39:46.758Z,7.57
2019-02-15T14:40:55.311Z,7.67
2019-02-15T14:42:03.464Z,8.33
2019-02-15T14:43:11.861Z,7.73
2019-02-15T14:44:19.946Z,6.23
2019-02-15T14:45:28.116Z,6.60
2019-02-15T14:46:36.259Z,7.07
2019-02-15T14:47:53.957Z,7.47
2019-02-15T14:48:55.429Z,8.50
2019-02-15T14:50:04.205Z,6.70
2019-02-15T14:51:12.630Z,7.23
2019-02-15T14:52:20.711Z,6.53
2019-02-15T14:53:29.320Z,7.73
2019-02-15T14:54:37.631Z,6.60
2019-02-15T14:55:46.311Z,8.23
2019-02-15T14:56:55.074Z,5.67
2019-02-15T14:58:03.652Z,8.33
2019-02-15T14:59:12.080Z,7.07
2019-02-15T15:00:20.280Z,7.60
2019-02-15T15:01:28.305Z,5.73
2019-02-15T15:02:37.020Z,6.67
2019-02-15T15:03:45.085Z,7.47
2019-02-15T15:04:53.708Z,7.63
2019-02-15T15:06:02.162Z,5.77
2019-02-15T15:07:10.607Z,6.63
2019-02-15T15:08:18.956Z,7.70
2019-02-15T15:09:27.613Z,7.30
2019-02-15T15:10:36.186Z,7.67
2019-02-15T15:11:44.438Z,7.30
2019-02-15T15:12:53.049Z,7.30
2019-02-15T15:14:01.126Z,5.77
2019-02-15T15:15:15.111Z,6.37
2019-02-15T15:16:23.356Z,6.87
2019-02-15T15:17:31.461Z,7.60
2019-02-15T15:18:40.112Z,8.00